sensor_id;sensor_type;location;lat;lon;timestamp;temperature;humidity
10468;DHT22;5281;48.878;9.394;2023-03-12T00:00:38;0.10;99.90
10468;DHT22;5281;48.878;9.394;2023-03-12T00:03:05;0.10;99.90
10468;DHT22;5281;48.878;9.394;2023-03-12T00:05:32;0.10;99.90
10468;DHT22;5281;48.878;9.394;2023-03-12T00:07:59;0.00;99.90
10468;DHT22;5281;48.878;9.394;2023-03-12T00:10:27;-0.10;99.90
10468;DHT22;5281;48.878;9.394;2023-03-12T00:12:54;-0.10;99.90
10468;DHT22;5281;48.878;9.394;2023-03-12T00:15:21;0.00;99.90
10468;DHT22;5281;48.878;9.394;2023-03-12T00:17:48;-0.10;99.90
10468;DHT22;5281;48.878;9.394;2023-03-12T00:20:15;-0.20;99.90
10468;DHT22;5281;48.878;9.394;2023-03-12T00:22:42;-0.10;99.90
10468;DHT22;5281;48.878;9.394;2023-03-12T00:25:12;-0.20;99.90
10468;DHT22;5281;48.878;9.394;2023-03-12T00:27:41;-0.20;99.90
10468;DHT22;5281;48.878;9.394;2023-03-12T00:30:09;-0.10;99.90
10468;DHT22;5281;48.878;9.394;2023-03-12T00:32:37;0.00;99.90
10468;DHT22;5281;48.878;9.394;2023-03-12T00:35:05;0.00;99.90
10468;DHT22;5281;48.878;9.394;2023-03-12T00:37:32;0.00;99.90
10468;DHT22;5281;48.878;9.394;2023-03-12T00:39:59;0.10;99.90
10468;DHT22;5281;48.878;9.394;2023-03-12T00:42:26;0.10;99.90
10468;DHT22;5281;48.878;9.394;2023-03-12T00:44:54;0.10;99.90
10468;DHT22;5281;48.878;9.394;2023-03-12T00:47:21;0.10;99.90
10468;DHT22;5281;48.878;9.394;2023-03-12T00:49:48;0.10;99.90
10468;DHT22;5281;48.878;9.394;2023-03-12T00:52:14;0.00;99.90
10468;DHT22;5281;48.878;9.394;2023-03-12T00:54:41;0.10;99.90
10468;DHT22;5281;48.878;9.394;2023-03-12T00:57:08;0.00;99.90
10468;DHT22;5281;48.878;9.394;2023-03-12T00:59:34;0.00;99.90
10468;DHT22;5281;48.878;9.394;2023-03-12T01:02:06;0.00;99.90
10468;DHT22;5281;48.878;9.394;2023-03-12T01:04:33;0.00;99.90
10468;DHT22;5281;48.878;9.394;2023-03-12T01:07:00;0.00;99.90
10468;DHT22;5281;48.878;9.394;2023-03-12T01:09:26;-0.10;99.90
10468;DHT22;5281;48.878;9.394;2023-03-12T01:11:53;-0.20;99.90
10468;DHT22;5281;48.878;9.394;2023-03-12T01:14:20;-0.20;99.90
10468;DHT22;5281;48.878;9.394;2023-03-12T01:16:46;-0.20;99.90
10468;DHT22;5281;48.878;9.394;2023-03-12T01:19:14;-0.20;99.90
10468;DHT22;5281;48.878;9.394;2023-03-12T01:21:41;-0.20;99.90
10468;DHT22;5281;48.878;9.394;2023-03-12T01:24:08;-0.20;99.90
10468;DHT22;5281;48.878;9.394;2023-03-12T01:26:34;-0.20;99.90
10468;DHT22;5281;48.878;9.394;2023-03-12T01:29:01;-0.40;99.90
10468;DHT22;5281;48.878;9.394;2023-03-12T01:31:28;-0.30;99.90
10468;DHT22;5281;48.878;9.394;2023-03-12T01:33:54;-0.20;99.90
10468;DHT22;5281;48.878;9.394;2023-03-12T01:36:24;-0.10;99.90
10468;DHT22;5281;48.878;9.394;2023-03-12T01:38:52;0.00;99.90
10468;DHT22;5281;48.878;9.394;2023-03-12T01:41:20;0.10;99.90
10468;DHT22;5281;48.878;9.394;2023-03-12T01:43:47;0.20;99.90
10468;DHT22;5281;48.878;9.394;2023-03-12T01:46:35;0.20;99.90
10468;DHT22;5281;48.878;9.394;2023-03-12T01:49:06;0.30;99.90
10468;DHT22;5281;48.878;9.394;2023-03-12T01:51:38;0.30;99.90
10468;DHT22;5281;48.878;9.394;2023-03-12T01:54:09;0.40;99.90
10468;DHT22;5281;48.878;9.394;2023-03-12T01:56:38;0.40;99.90
10468;DHT22;5281;48.878;9.394;2023-03-12T01:59:10;0.40;99.90
10468;DHT22;5281;48.878;9.394;2023-03-12T02:01:38;0.40;99.90
10468;DHT22;5281;48.878;9.394;2023-03-12T02:04:06;0.40;99.90
10468;DHT22;5281;48.878;9.394;2023-03-12T02:06:37;0.50;99.90
10468;DHT22;5281;48.878;9.394;2023-03-12T02:09:06;0.60;99.90
10468;DHT22;5281;48.878;9.394;2023-03-12T02:11:33;0.60;99.90
10468;DHT22;5281;48.878;9.394;2023-03-12T02:13:59;0.50;99.90
10468;DHT22;5281;48.878;9.394;2023-03-12T02:16:26;0.50;99.90
10468;DHT22;5281;48.878;9.394;2023-03-12T02:18:55;0.40;99.90
10468;DHT22;5281;48.878;9.394;2023-03-12T02:21:24;0.50;99.90
10468;DHT22;5281;48.878;9.394;2023-03-12T02:23:56;0.40;99.90
10468;DHT22;5281;48.878;9.394;2023-03-12T02:26:28;0.50;99.90
10468;DHT22;5281;48.878;9.394;2023-03-12T02:28:55;0.60;99.90
10468;DHT22;5281;48.878;9.394;2023-03-12T02:31:27;0.70;99.90
10468;DHT22;5281;48.878;9.394;2023-03-12T02:33:54;0.80;99.90
10468;DHT22;5281;48.878;9.394;2023-03-12T02:36:22;0.90;99.90
10468;DHT22;5281;48.878;9.394;2023-03-12T02:38:50;0.90;99.90
10468;DHT22;5281;48.878;9.394;2023-03-12T02:41:20;1.00;99.90
10468;DHT22;5281;48.878;9.394;2023-03-12T02:43:56;1.00;99.90
10468;DHT22;5281;48.878;9.394;2023-03-12T02:46:24;1.10;99.90
10468;DHT22;5281;48.878;9.394;2023-03-12T02:48:51;1.20;99.90
10468;DHT22;5281;48.878;9.394;2023-03-12T02:51:19;1.20;99.90
10468;DHT22;5281;48.878;9.394;2023-03-12T02:53:45;1.20;99.90
10468;DHT22;5281;48.878;9.394;2023-03-12T02:56:14;1.20;99.90
10468;DHT22;5281;48.878;9.394;2023-03-12T02:58:41;1.30;99.90
10468;DHT22;5281;48.878;9.394;2023-03-12T03:01:10;1.40;99.90
10468;DHT22;5281;48.878;9.394;2023-03-12T03:03:37;1.50;99.90
10468;DHT22;5281;48.878;9.394;2023-03-12T03:06:04;1.60;99.90
10468;DHT22;5281;48.878;9.394;2023-03-12T03:08:31;1.60;99.90
10468;DHT22;5281;48.878;9.394;2023-03-12T03:10:57;1.60;99.90
10468;DHT22;5281;48.878;9.394;2023-03-12T03:13:27;1.60;99.90
10468;DHT22;5281;48.878;9.394;2023-03-12T03:15:54;1.70;99.90
10468;DHT22;5281;48.878;9.394;2023-03-12T03:18:23;1.80;99.90
10468;DHT22;5281;48.878;9.394;2023-03-12T03:20:54;1.80;99.90
10468;DHT22;5281;48.878;9.394;2023-03-12T03:23:21;1.80;99.90
10468;DHT22;5281;48.878;9.394;2023-03-12T03:25:48;1.60;99.90
10468;DHT22;5281;48.878;9.394;2023-03-12T03:28:15;1.40;99.90
10468;DHT22;5281;48.878;9.394;2023-03-12T03:30:41;1.30;99.90
10468;DHT22;5281;48.878;9.394;2023-03-12T03:33:08;1.30;99.90
10468;DHT22;5281;48.878;9.394;2023-03-12T03:35:36;1.40;99.90
10468;DHT22;5281;48.878;9.394;2023-03-12T03:38:03;1.40;99.90
10468;DHT22;5281;48.878;9.394;2023-03-12T03:40:29;1.50;99.90
10468;DHT22;5281;48.878;9.394;2023-03-12T03:42:56;1.70;99.90
10468;DHT22;5281;48.878;9.394;2023-03-12T03:45:23;1.70;99.90
10468;DHT22;5281;48.878;9.394;2023-03-12T03:47:50;1.80;99.90
10468;DHT22;5281;48.878;9.394;2023-03-12T03:50:17;1.80;99.90
10468;DHT22;5281;48.878;9.394;2023-03-12T03:52:45;1.70;99.90
10468;DHT22;5281;48.878;9.394;2023-03-12T03:55:12;1.60;99.90
10468;DHT22;5281;48.878;9.394;2023-03-12T03:57:38;1.70;99.90
10468;DHT22;5281;48.878;9.394;2023-03-12T04:00:06;1.70;99.90
10468;DHT22;5281;48.878;9.394;2023-03-12T04:02:34;1.60;99.90
10468;DHT22;5281;48.878;9.394;2023-03-12T04:05:01;1.40;99.90
10468;DHT22;5281;48.878;9.394;2023-03-12T04:07:28;1.40;99.90
10468;DHT22;5281;48.878;9.394;2023-03-12T04:09:56;1.50;99.90
10468;DHT22;5281;48.878;9.394;2023-03-12T04:12:23;1.60;99.90
10468;DHT22;5281;48.878;9.394;2023-03-12T04:14:50;1.50;99.90
10468;DHT22;5281;48.878;9.394;2023-03-12T04:17:17;1.50;99.90
10468;DHT22;5281;48.878;9.394;2023-03-12T04:19:44;1.50;99.90
10468;DHT22;5281;48.878;9.394;2023-03-12T04:22:11;1.50;99.90
10468;DHT22;5281;48.878;9.394;2023-03-12T04:24:38;1.50;99.90
10468;DHT22;5281;48.878;9.394;2023-03-12T04:27:06;1.50;99.90
10468;DHT22;5281;48.878;9.394;2023-03-12T04:29:32;1.70;99.90
10468;DHT22;5281;48.878;9.394;2023-03-12T04:31:59;1.70;99.90
10468;DHT22;5281;48.878;9.394;2023-03-12T04:34:26;1.80;99.90
10468;DHT22;5281;48.878;9.394;2023-03-12T04:36:52;1.90;99.90
10468;DHT22;5281;48.878;9.394;2023-03-12T04:39:19;2.00;99.90
10468;DHT22;5281;48.878;9.394;2023-03-12T04:41:46;2.10;99.90
10468;DHT22;5281;48.878;9.394;2023-03-12T04:44:14;2.00;99.90
10468;DHT22;5281;48.878;9.394;2023-03-12T04:46:41;2.00;99.90
10468;DHT22;5281;48.878;9.394;2023-03-12T04:49:08;2.10;99.90
10468;DHT22;5281;48.878;9.394;2023-03-12T04:51:35;2.20;99.90
10468;DHT22;5281;48.878;9.394;2023-03-12T04:54:02;2.10;99.90
10468;DHT22;5281;48.878;9.394;2023-03-12T04:56:28;2.10;99.90
10468;DHT22;5281;48.878;9.394;2023-03-12T04:58:55;2.00;99.90
10468;DHT22;5281;48.878;9.394;2023-03-12T05:01:26;2.10;99.90
10468;DHT22;5281;48.878;9.394;2023-03-12T05:03:53;2.00;99.90
10468;DHT22;5281;48.878;9.394;2023-03-12T05:06:21;2.10;99.90
10468;DHT22;5281;48.878;9.394;2023-03-12T05:08:48;2.10;99.90
10468;DHT22;5281;48.878;9.394;2023-03-12T05:11:16;2.30;99.90
10468;DHT22;5281;48.878;9.394;2023-03-12T05:13:43;2.30;99.90
10468;DHT22;5281;48.878;9.394;2023-03-12T05:16:10;2.30;99.90
10468;DHT22;5281;48.878;9.394;2023-03-12T05:18:39;2.30;99.90
10468;DHT22;5281;48.878;9.394;2023-03-12T05:21:08;2.30;99.90
10468;DHT22;5281;48.878;9.394;2023-03-12T05:23:37;2.40;99.90
10468;DHT22;5281;48.878;9.394;2023-03-12T05:26:07;2.50;99.90
10468;DHT22;5281;48.878;9.394;2023-03-12T05:28:34;2.50;99.90
10468;DHT22;5281;48.878;9.394;2023-03-12T05:31:00;2.50;99.90
10468;DHT22;5281;48.878;9.394;2023-03-12T05:33:27;2.70;99.90
10468;DHT22;5281;48.878;9.394;2023-03-12T05:35:56;2.70;99.90
10468;DHT22;5281;48.878;9.394;2023-03-12T05:38:22;2.90;99.90
10468;DHT22;5281;48.878;9.394;2023-03-12T05:40:53;2.90;99.90
10468;DHT22;5281;48.878;9.394;2023-03-12T05:43:20;2.90;99.90
10468;DHT22;5281;48.878;9.394;2023-03-12T05:45:47;3.00;99.90
10468;DHT22;5281;48.878;9.394;2023-03-12T05:48:14;3.00;99.90
10468;DHT22;5281;48.878;9.394;2023-03-12T05:50:41;2.90;99.90
10468;DHT22;5281;48.878;9.394;2023-03-12T05:53:09;2.80;99.90
10468;DHT22;5281;48.878;9.394;2023-03-12T05:55:37;2.80;99.90
10468;DHT22;5281;48.878;9.394;2023-03-12T05:58:05;2.80;99.90
10468;DHT22;5281;48.878;9.394;2023-03-12T06:00:33;2.80;99.90
10468;DHT22;5281;48.878;9.394;2023-03-12T06:03:02;2.90;99.90
10468;DHT22;5281;48.878;9.394;2023-03-12T06:05:29;2.90;99.90
10468;DHT22;5281;48.878;9.394;2023-03-12T06:07:56;2.90;99.90
10468;DHT22;5281;48.878;9.394;2023-03-12T06:10:24;2.90;99.90
10468;DHT22;5281;48.878;9.394;2023-03-12T06:12:51;2.90;99.90
10468;DHT22;5281;48.878;9.394;2023-03-12T06:15:18;2.90;99.90
10468;DHT22;5281;48.878;9.394;2023-03-12T06:17:45;3.10;99.90
10468;DHT22;5281;48.878;9.394;2023-03-12T06:20:11;3.10;99.90
10468;DHT22;5281;48.878;9.394;2023-03-12T06:22:38;3.20;99.90
10468;DHT22;5281;48.878;9.394;2023-03-12T06:25:06;3.20;99.90
10468;DHT22;5281;48.878;9.394;2023-03-12T06:27:34;3.30;99.90
10468;DHT22;5281;48.878;9.394;2023-03-12T06:30:01;3.40;99.90
10468;DHT22;5281;48.878;9.394;2023-03-12T06:32:28;3.50;99.90
10468;DHT22;5281;48.878;9.394;2023-03-12T06:34:55;3.50;99.90
10468;DHT22;5281;48.878;9.394;2023-03-12T06:37:25;3.60;99.90
10468;DHT22;5281;48.878;9.394;2023-03-12T06:39:52;3.60;99.90
10468;DHT22;5281;48.878;9.394;2023-03-12T06:42:18;3.60;99.90
10468;DHT22;5281;48.878;9.394;2023-03-12T06:44:48;3.70;99.90
10468;DHT22;5281;48.878;9.394;2023-03-12T06:47:15;3.80;99.90
10468;DHT22;5281;48.878;9.394;2023-03-12T06:49:42;3.90;99.90
10468;DHT22;5281;48.878;9.394;2023-03-12T06:52:08;4.10;99.90
10468;DHT22;5281;48.878;9.394;2023-03-12T06:54:35;4.20;99.90
10468;DHT22;5281;48.878;9.394;2023-03-12T06:57:02;4.20;99.90
10468;DHT22;5281;48.878;9.394;2023-03-12T06:59:29;4.00;99.90
10468;DHT22;5281;48.878;9.394;2023-03-12T07:01:57;4.00;99.90
10468;DHT22;5281;48.878;9.394;2023-03-12T07:04:24;4.10;99.90
10468;DHT22;5281;48.878;9.394;2023-03-12T07:06:51;4.10;99.90
10468;DHT22;5281;48.878;9.394;2023-03-12T07:09:17;4.20;99.90
10468;DHT22;5281;48.878;9.394;2023-03-12T07:11:44;4.30;99.90
10468;DHT22;5281;48.878;9.394;2023-03-12T07:14:11;4.40;99.90
10468;DHT22;5281;48.878;9.394;2023-03-12T07:16:38;4.50;99.90
10468;DHT22;5281;48.878;9.394;2023-03-12T07:19:06;4.60;99.90
10468;DHT22;5281;48.878;9.394;2023-03-12T07:21:33;4.70;99.90
10468;DHT22;5281;48.878;9.394;2023-03-12T07:23:59;4.80;99.90
10468;DHT22;5281;48.878;9.394;2023-03-12T07:26:31;4.80;99.90
10468;DHT22;5281;48.878;9.394;2023-03-12T07:28:58;4.80;99.90
10468;DHT22;5281;48.878;9.394;2023-03-12T07:31:25;4.60;99.90
10468;DHT22;5281;48.878;9.394;2023-03-12T07:33:51;4.50;99.90
10468;DHT22;5281;48.878;9.394;2023-03-12T07:36:19;4.30;99.90
10468;DHT22;5281;48.878;9.394;2023-03-12T07:38:46;4.10;99.90
10468;DHT22;5281;48.878;9.394;2023-03-12T07:41:13;4.10;99.90
10468;DHT22;5281;48.878;9.394;2023-03-12T07:43:40;4.00;99.90
10468;DHT22;5281;48.878;9.394;2023-03-12T07:46:06;4.00;99.90
10468;DHT22;5281;48.878;9.394;2023-03-12T07:48:33;4.00;99.90
10468;DHT22;5281;48.878;9.394;2023-03-12T07:51:00;4.00;99.90
10468;DHT22;5281;48.878;9.394;2023-03-12T07:53:28;4.10;99.90
10468;DHT22;5281;48.878;9.394;2023-03-12T07:55:55;4.20;99.90
10468;DHT22;5281;48.878;9.394;2023-03-12T07:58:21;4.30;99.90
10468;DHT22;5281;48.878;9.394;2023-03-12T08:00:48;4.40;99.90
10468;DHT22;5281;48.878;9.394;2023-03-12T08:03:15;4.40;99.90
10468;DHT22;5281;48.878;9.394;2023-03-12T08:05:42;4.50;99.90
10468;DHT22;5281;48.878;9.394;2023-03-12T08:08:09;4.60;99.90
10468;DHT22;5281;48.878;9.394;2023-03-12T08:10:37;4.60;99.90
10468;DHT22;5281;48.878;9.394;2023-03-12T08:13:04;4.70;99.90
10468;DHT22;5281;48.878;9.394;2023-03-12T08:15:30;4.80;99.90
10468;DHT22;5281;48.878;9.394;2023-03-12T08:17:57;4.90;99.90
10468;DHT22;5281;48.878;9.394;2023-03-12T08:20:26;5.00;99.90
10468;DHT22;5281;48.878;9.394;2023-03-12T08:22:52;5.00;99.90
10468;DHT22;5281;48.878;9.394;2023-03-12T08:25:19;5.00;99.90
10468;DHT22;5281;48.878;9.394;2023-03-12T08:27:47;5.00;99.90
10468;DHT22;5281;48.878;9.394;2023-03-12T08:30:14;5.10;99.90
10468;DHT22;5281;48.878;9.394;2023-03-12T08:32:41;5.10;99.90
10468;DHT22;5281;48.878;9.394;2023-03-12T08:35:08;5.00;99.90
10468;DHT22;5281;48.878;9.394;2023-03-12T08:37:35;5.00;99.90
10468;DHT22;5281;48.878;9.394;2023-03-12T08:40:02;5.10;99.90
10468;DHT22;5281;48.878;9.394;2023-03-12T08:42:33;5.10;99.90
10468;DHT22;5281;48.878;9.394;2023-03-12T08:45:01;5.20;99.90
10468;DHT22;5281;48.878;9.394;2023-03-12T08:47:28;5.40;99.90
10468;DHT22;5281;48.878;9.394;2023-03-12T08:49:55;5.60;99.90
10468;DHT22;5281;48.878;9.394;2023-03-12T08:52:22;5.70;99.90
10468;DHT22;5281;48.878;9.394;2023-03-12T08:54:48;5.80;99.90
10468;DHT22;5281;48.878;9.394;2023-03-12T08:57:15;5.70;99.90
10468;DHT22;5281;48.878;9.394;2023-03-12T08:59:42;5.80;99.90
10468;DHT22;5281;48.878;9.394;2023-03-12T09:02:11;6.20;99.90
10468;DHT22;5281;48.878;9.394;2023-03-12T09:04:38;6.60;99.90
10468;DHT22;5281;48.878;9.394;2023-03-12T09:07:05;7.00;99.90
10468;DHT22;5281;48.878;9.394;2023-03-12T09:09:34;7.20;99.90
10468;DHT22;5281;48.878;9.394;2023-03-12T09:12:01;7.30;99.90
10468;DHT22;5281;48.878;9.394;2023-03-12T09:14:27;7.70;99.90
10468;DHT22;5281;48.878;9.394;2023-03-12T09:17:01;7.80;99.90
10468;DHT22;5281;48.878;9.394;2023-03-12T09:19:30;8.10;99.90
10468;DHT22;5281;48.878;9.394;2023-03-12T09:22:00;8.40;99.90
10468;DHT22;5281;48.878;9.394;2023-03-12T09:24:27;8.70;99.90
10468;DHT22;5281;48.878;9.394;2023-03-12T09:26:54;8.90;99.90
10468;DHT22;5281;48.878;9.394;2023-03-12T09:29:20;9.10;99.90
10468;DHT22;5281;48.878;9.394;2023-03-12T09:31:47;9.30;99.90
10468;DHT22;5281;48.878;9.394;2023-03-12T09:34:14;9.40;99.90
10468;DHT22;5281;48.878;9.394;2023-03-12T09:36:42;9.50;99.90
10468;DHT22;5281;48.878;9.394;2023-03-12T09:39:09;9.70;99.90
10468;DHT22;5281;48.878;9.394;2023-03-12T09:41:38;9.80;99.90
10468;DHT22;5281;48.878;9.394;2023-03-12T09:44:10;10.00;99.90
10468;DHT22;5281;48.878;9.394;2023-03-12T09:46:43;10.30;99.90
10468;DHT22;5281;48.878;9.394;2023-03-12T09:49:17;10.70;99.90
10468;DHT22;5281;48.878;9.394;2023-03-12T09:51:47;10.90;99.90
10468;DHT22;5281;48.878;9.394;2023-03-12T09:54:23;11.10;99.90
10468;DHT22;5281;48.878;9.394;2023-03-12T09:56:54;11.30;99.90
10468;DHT22;5281;48.878;9.394;2023-03-12T09:59:21;11.60;99.90
10468;DHT22;5281;48.878;9.394;2023-03-12T10:01:52;11.80;99.90
10468;DHT22;5281;48.878;9.394;2023-03-12T10:04:39;12.00;99.90
10468;DHT22;5281;48.878;9.394;2023-03-12T10:07:13;12.10;99.90
10468;DHT22;5281;48.878;9.394;2023-03-12T10:12:52;12.20;99.90
10468;DHT22;5281;48.878;9.394;2023-03-12T10:15:34;12.20;99.90
10468;DHT22;5281;48.878;9.394;2023-03-12T10:18:15;12.20;99.90
10468;DHT22;5281;48.878;9.394;2023-03-12T10:20:50;12.20;99.90
10468;DHT22;5281;48.878;9.394;2023-03-12T10:23:28;12.20;99.90
10468;DHT22;5281;48.878;9.394;2023-03-12T10:26:01;12.30;99.90
10468;DHT22;5281;48.878;9.394;2023-03-12T10:28:35;12.40;99.90
10468;DHT22;5281;48.878;9.394;2023-03-12T10:31:05;12.60;99.90
10468;DHT22;5281;48.878;9.394;2023-03-12T10:33:40;12.70;99.90
10468;DHT22;5281;48.878;9.394;2023-03-12T10:36:17;12.80;99.90
10468;DHT22;5281;48.878;9.394;2023-03-12T10:38:46;12.80;99.90
10468;DHT22;5281;48.878;9.394;2023-03-12T10:41:16;12.90;99.90
10468;DHT22;5281;48.878;9.394;2023-03-12T10:43:43;13.00;99.90
10468;DHT22;5281;48.878;9.394;2023-03-12T10:49:29;13.40;99.90
10468;DHT22;5281;48.878;9.394;2023-03-12T10:52:02;13.60;99.90
10468;DHT22;5281;48.878;9.394;2023-03-12T10:54:33;13.80;99.90
10468;DHT22;5281;48.878;9.394;2023-03-12T10:57:00;13.80;99.90
10468;DHT22;5281;48.878;9.394;2023-03-12T10:59:30;13.80;99.90
10468;DHT22;5281;48.878;9.394;2023-03-12T11:01:58;13.70;99.90
10468;DHT22;5281;48.878;9.394;2023-03-12T11:04:27;13.50;99.90
10468;DHT22;5281;48.878;9.394;2023-03-12T11:07:17;13.40;99.90
10468;DHT22;5281;48.878;9.394;2023-03-12T11:10:03;13.30;99.90
10468;DHT22;5281;48.878;9.394;2023-03-12T11:12:38;13.30;99.90
10468;DHT22;5281;48.878;9.394;2023-03-12T11:15:18;13.20;99.90
10468;DHT22;5281;48.878;9.394;2023-03-12T11:17:46;13.10;99.90
10468;DHT22;5281;48.878;9.394;2023-03-12T11:20:24;13.10;99.90
10468;DHT22;5281;48.878;9.394;2023-03-12T11:22:51;13.00;99.90
10468;DHT22;5281;48.878;9.394;2023-03-12T11:25:24;13.00;99.90
10468;DHT22;5281;48.878;9.394;2023-03-12T11:27:53;13.00;99.90
10468;DHT22;5281;48.878;9.394;2023-03-12T11:30:23;12.90;99.90
10468;DHT22;5281;48.878;9.394;2023-03-12T11:32:51;12.90;99.90
10468;DHT22;5281;48.878;9.394;2023-03-12T11:35:25;13.00;99.90
10468;DHT22;5281;48.878;9.394;2023-03-12T11:38:00;13.10;99.90
10468;DHT22;5281;48.878;9.394;2023-03-12T11:40:42;13.50;99.90
10468;DHT22;5281;48.878;9.394;2023-03-12T11:43:25;13.90;99.90
10468;DHT22;5281;48.878;9.394;2023-03-12T11:46:08;14.30;99.90
10468;DHT22;5281;48.878;9.394;2023-03-12T11:48:42;14.90;99.90
10468;DHT22;5281;48.878;9.394;2023-03-12T11:51:19;15.30;99.90
10468;DHT22;5281;48.878;9.394;2023-03-12T11:54:03;15.70;99.90
10468;DHT22;5281;48.878;9.394;2023-03-12T11:56:33;15.90;99.90
10468;DHT22;5281;48.878;9.394;2023-03-12T11:59:27;15.80;99.90
10468;DHT22;5281;48.878;9.394;2023-03-12T12:02:03;15.70;99.90
10468;DHT22;5281;48.878;9.394;2023-03-12T12:05:00;15.60;99.90
10468;DHT22;5281;48.878;9.394;2023-03-12T12:07:44;15.80;99.90
10468;DHT22;5281;48.878;9.394;2023-03-12T12:10:23;16.00;99.90
10468;DHT22;5281;48.878;9.394;2023-03-12T12:13:02;15.90;99.90
10468;DHT22;5281;48.878;9.394;2023-03-12T12:15:37;15.60;99.90
10468;DHT22;5281;48.878;9.394;2023-03-12T12:18:18;15.20;99.90
10468;DHT22;5281;48.878;9.394;2023-03-12T12:20:55;14.80;99.90
10468;DHT22;5281;48.878;9.394;2023-03-12T12:23:31;14.50;99.90
10468;DHT22;5281;48.878;9.394;2023-03-12T12:26:04;14.40;99.90
10468;DHT22;5281;48.878;9.394;2023-03-12T12:28:52;14.40;99.90
10468;DHT22;5281;48.878;9.394;2023-03-12T12:31:34;14.40;99.90
10468;DHT22;5281;48.878;9.394;2023-03-12T12:34:22;14.70;99.90
10468;DHT22;5281;48.878;9.394;2023-03-12T12:36:54;14.90;99.90
10468;DHT22;5281;48.878;9.394;2023-03-12T12:39:28;15.00;99.90
10468;DHT22;5281;48.878;9.394;2023-03-12T12:41:58;15.10;99.90
10468;DHT22;5281;48.878;9.394;2023-03-12T12:44:32;15.40;99.90
10468;DHT22;5281;48.878;9.394;2023-03-12T12:47:03;15.60;99.90
10468;DHT22;5281;48.878;9.394;2023-03-12T12:49:37;15.70;99.90
10468;DHT22;5281;48.878;9.394;2023-03-12T12:52:11;15.60;99.90
10468;DHT22;5281;48.878;9.394;2023-03-12T12:54:45;15.60;99.90
10468;DHT22;5281;48.878;9.394;2023-03-12T12:57:17;15.40;99.90
10468;DHT22;5281;48.878;9.394;2023-03-12T12:59:57;15.20;99.90
10468;DHT22;5281;48.878;9.394;2023-03-12T13:02:29;15.10;99.90
10468;DHT22;5281;48.878;9.394;2023-03-12T13:04:58;15.00;99.90
10468;DHT22;5281;48.878;9.394;2023-03-12T13:07:30;15.00;99.90
10468;DHT22;5281;48.878;9.394;2023-03-12T13:09:58;14.90;99.90
10468;DHT22;5281;48.878;9.394;2023-03-12T13:12:31;14.80;99.90
10468;DHT22;5281;48.878;9.394;2023-03-12T13:15:12;14.80;99.90
10468;DHT22;5281;48.878;9.394;2023-03-12T13:18:06;14.90;99.90
10468;DHT22;5281;48.878;9.394;2023-03-12T13:20:40;15.00;99.90
10468;DHT22;5281;48.878;9.394;2023-03-12T13:23:29;14.90;99.90
10468;DHT22;5281;48.878;9.394;2023-03-12T13:26:02;14.70;99.90
10468;DHT22;5281;48.878;9.394;2023-03-12T13:28:37;14.60;99.90
10468;DHT22;5281;48.878;9.394;2023-03-12T13:31:39;14.40;99.90
10468;DHT22;5281;48.878;9.394;2023-03-12T13:34:29;14.30;99.90
10468;DHT22;5281;48.878;9.394;2023-03-12T13:36:57;14.10;99.90
10468;DHT22;5281;48.878;9.394;2023-03-12T13:39:29;13.90;99.90
10468;DHT22;5281;48.878;9.394;2023-03-12T13:41:58;13.90;99.90
10468;DHT22;5281;48.878;9.394;2023-03-12T13:44:30;13.90;99.90
10468;DHT22;5281;48.878;9.394;2023-03-12T13:47:05;14.10;99.90
10468;DHT22;5281;48.878;9.394;2023-03-12T13:49:44;14.50;99.90
10468;DHT22;5281;48.878;9.394;2023-03-12T13:52:19;14.90;99.90
10468;DHT22;5281;48.878;9.394;2023-03-12T13:54:55;15.20;99.90
10468;DHT22;5281;48.878;9.394;2023-03-12T13:57:29;15.20;99.90
10468;DHT22;5281;48.878;9.394;2023-03-12T14:00:02;15.10;99.90
10468;DHT22;5281;48.878;9.394;2023-03-12T14:02:35;15.10;99.90
10468;DHT22;5281;48.878;9.394;2023-03-12T14:05:05;15.10;99.90
10468;DHT22;5281;48.878;9.394;2023-03-12T14:08:15;15.10;99.90
10468;DHT22;5281;48.878;9.394;2023-03-12T14:10:56;15.30;99.90
10468;DHT22;5281;48.878;9.394;2023-03-12T14:13:43;15.40;99.90
10468;DHT22;5281;48.878;9.394;2023-03-12T14:16:21;15.50;99.90
10468;DHT22;5281;48.878;9.394;2023-03-12T14:18:51;15.60;99.90
10468;DHT22;5281;48.878;9.394;2023-03-12T14:21:21;15.60;99.90
10468;DHT22;5281;48.878;9.394;2023-03-12T14:23:53;15.60;99.90
10468;DHT22;5281;48.878;9.394;2023-03-12T14:26:23;15.50;99.90
10468;DHT22;5281;48.878;9.394;2023-03-12T14:28:56;15.20;99.90
10468;DHT22;5281;48.878;9.394;2023-03-12T14:31:25;14.90;99.90
10468;DHT22;5281;48.878;9.394;2023-03-12T14:33:56;14.60;99.90
10468;DHT22;5281;48.878;9.394;2023-03-12T14:36:26;14.30;99.90
10468;DHT22;5281;48.878;9.394;2023-03-12T14:38:59;14.10;99.90
10468;DHT22;5281;48.878;9.394;2023-03-12T14:41:28;13.90;99.90
10468;DHT22;5281;48.878;9.394;2023-03-12T14:44:03;13.80;99.90
10468;DHT22;5281;48.878;9.394;2023-03-12T14:46:30;13.80;99.90
10468;DHT22;5281;48.878;9.394;2023-03-12T14:48:58;13.90;99.90
10468;DHT22;5281;48.878;9.394;2023-03-12T14:51:27;14.00;99.90
10468;DHT22;5281;48.878;9.394;2023-03-12T14:53:55;14.20;99.90
10468;DHT22;5281;48.878;9.394;2023-03-12T14:56:23;14.30;99.90
10468;DHT22;5281;48.878;9.394;2023-03-12T14:58:54;14.40;99.90
10468;DHT22;5281;48.878;9.394;2023-03-12T15:01:22;14.70;99.90
10468;DHT22;5281;48.878;9.394;2023-03-12T15:03:51;15.00;99.90
10468;DHT22;5281;48.878;9.394;2023-03-12T15:06:27;15.10;99.90
10468;DHT22;5281;48.878;9.394;2023-03-12T15:08:55;15.20;99.90
10468;DHT22;5281;48.878;9.394;2023-03-12T15:11:24;15.20;99.90
10468;DHT22;5281;48.878;9.394;2023-03-12T15:13:53;15.00;99.90
10468;DHT22;5281;48.878;9.394;2023-03-12T15:16:21;15.00;99.90
10468;DHT22;5281;48.878;9.394;2023-03-12T15:18:48;14.80;99.90
10468;DHT22;5281;48.878;9.394;2023-03-12T15:21:16;14.80;99.90
10468;DHT22;5281;48.878;9.394;2023-03-12T15:23:45;14.70;99.90
10468;DHT22;5281;48.878;9.394;2023-03-12T15:26:15;14.80;99.90
10468;DHT22;5281;48.878;9.394;2023-03-12T15:28:54;14.80;99.90
10468;DHT22;5281;48.878;9.394;2023-03-12T15:31:21;14.90;99.90
10468;DHT22;5281;48.878;9.394;2023-03-12T15:34:00;15.00;99.90
10468;DHT22;5281;48.878;9.394;2023-03-12T15:36:29;15.00;99.90
10468;DHT22;5281;48.878;9.394;2023-03-12T15:38:59;14.90;99.90
10468;DHT22;5281;48.878;9.394;2023-03-12T15:41:39;14.90;99.90
10468;DHT22;5281;48.878;9.394;2023-03-12T15:44:17;14.80;99.90
10468;DHT22;5281;48.878;9.394;2023-03-12T15:46:46;14.80;99.90
10468;DHT22;5281;48.878;9.394;2023-03-12T15:49:20;14.80;99.90
10468;DHT22;5281;48.878;9.394;2023-03-12T15:52:01;15.10;99.90
10468;DHT22;5281;48.878;9.394;2023-03-12T15:54:31;14.90;99.90
10468;DHT22;5281;48.878;9.394;2023-03-12T15:57:20;15.00;99.90
10468;DHT22;5281;48.878;9.394;2023-03-12T16:00:13;14.90;99.90
10468;DHT22;5281;48.878;9.394;2023-03-12T16:02:48;14.70;99.90
10468;DHT22;5281;48.878;9.394;2023-03-12T16:05:15;14.50;99.90
10468;DHT22;5281;48.878;9.394;2023-03-12T16:07:42;14.50;99.90
10468;DHT22;5281;48.878;9.394;2023-03-12T16:10:13;14.40;99.90
10468;DHT22;5281;48.878;9.394;2023-03-12T16:12:40;14.40;99.90
10468;DHT22;5281;48.878;9.394;2023-03-12T16:15:12;14.20;99.90
10468;DHT22;5281;48.878;9.394;2023-03-12T16:17:40;14.20;99.90
10468;DHT22;5281;48.878;9.394;2023-03-12T16:20:13;14.20;99.90